PWSweather.com
Personal Weather Stations
Station Observations
KKYCRABO2
Cedar Creek Lake 840 Ky. Hwy. 39 N, Crab Orchard, KY 40419

Cedar Creek Lake 840 Ky. Hwy. 39 NCrab Orchard, KY 40419

Lat: 37.4736234544238, Lon: -84.5120286941528

Elevation: 952

Station Type: TYCON Power TP1080WC Pro

http://kbweather.net/

Latest ConditionsUpdated 7:50:02 PM EST Sunday, Mar 1, 2015
Currently Today's Max Today's Min Today's Average
Temperature 44.2°F6.8°C 45.5°F7.5°C 33.4°F0.8°C 40.5°F4.7°C
Dew Point 42.8°F6.0°C 42.8°F6.0°C 15.8°F-9.0°C 29.9°F-1.2°C
Winds 1.6 mph W2.6 kmh W 3.4 mph S5.5 kmh S - 0.9 mph 1.4 kmh
Wind Gusts 2.0 mph3.2 kmh 3.6 mph5.8 kmh - -
Humidity 93% 93% 47% 65%
Pressure 30.24 in1024.0 mb 30.41 in1029.8 mb 30.21 in1023.0 mb -
Precipitation - 0.08 in2.0 mm - -
Hour Temp Dew Point Humidity Winds Wind Gusts Pressure Precip Precip Rate Daily Precip Total
07:50 PM 44.2°F6.8°C 42.8°F6.0°C 93% 1.6 mph W2.6 kmh W 2.0 mph3.2 kmh 30.24 in1024.0 mb 0.00 in0.0 mm 0.00 in/hr0.0 mm/hr 0.08 in2.0 mm
07:45 PM 44.1°F6.7°C 42.8°F6.0°C 92% 1.6 mph W2.6 kmh W 2.0 mph3.2 kmh 30.24 in1024.0 mb 0.00 in0.0 mm 0.00 in/hr0.0 mm/hr 0.08 in2.0 mm
07:40 PM 44.2°F6.8°C 42.8°F6.0°C 92% 1.6 mph WSW2.6 kmh WSW 2.2 mph3.5 kmh 30.24 in1024.0 mb 0.00 in0.0 mm 0.00 in/hr0.0 mm/hr 0.08 in2.0 mm
07:35 PM 44.2°F6.8°C 42.8°F6.0°C 92% 1.1 mph WSW1.8 kmh WSW 2.2 mph3.5 kmh 30.24 in1024.0 mb 0.00 in0.0 mm 0.00 in/hr0.0 mm/hr 0.08 in2.0 mm
07:30 PM 44.1°F6.7°C 42.8°F6.0°C 92% 2.0 mph W3.2 kmh W 3.1 mph5.0 kmh 30.24 in1024.0 mb 0.00 in0.0 mm 0.00 in/hr0.0 mm/hr 0.08 in2.0 mm
07:25 PM 44.2°F6.8°C 42.8°F6.0°C 92% 2.5 mph W4.0 kmh W 3.6 mph5.8 kmh 30.24 in1024.0 mb 0.00 in0.0 mm 0.00 in/hr0.0 mm/hr 0.08 in2.0 mm
07:20 PM 44.2°F6.8°C 42.8°F6.0°C 92% 2.0 mph W3.2 kmh W 3.6 mph5.8 kmh 30.21 in1023.0 mb 0.00 in0.0 mm 0.00 in/hr0.0 mm/hr 0.08 in2.0 mm
07:15 PM 44.2°F6.8°C 42.8°F6.0°C 91% 2.2 mph W3.5 kmh W 2.5 mph4.0 kmh 30.21 in1023.0 mb 0.00 in0.0 mm 0.00 in/hr0.0 mm/hr 0.08 in2.0 mm
07:10 PM 44.1°F6.7°C 41.0°F5.0°C 90% 1.6 mph W2.6 kmh W 2.5 mph4.0 kmh 30.21 in1023.0 mb 0.00 in0.0 mm 0.00 in/hr0.0 mm/hr 0.08 in2.0 mm
07:05 PM 44.1°F6.7°C 41.0°F5.0°C 90% 1.6 mph W2.6 kmh W 2.0 mph3.2 kmh 30.24 in1024.0 mb 0.00 in0.0 mm 0.00 in/hr0.0 mm/hr 0.08 in2.0 mm
07:00 PM 43.9°F6.6°C 41.0°F5.0°C 90% 1.1 mph W1.8 kmh W 1.6 mph2.6 kmh 30.24 in1024.0 mb 0.00 in0.0 mm 0.00 in/hr0.0 mm/hr 0.08 in2.0 mm
06:55 PM 43.9°F6.6°C 41.0°F5.0°C 89% 1.6 mph WNW2.6 kmh WNW 2.0 mph3.2 kmh 30.24 in1024.0 mb 0.00 in0.0 mm 0.00 in/hr0.0 mm/hr 0.08 in2.0 mm
06:50 PM 43.9°F6.6°C 41.0°F5.0°C 89% 1.6 mph NW2.6 kmh NW 2.5 mph4.0 kmh 30.24 in1024.0 mb 0.00 in0.0 mm 0.00 in/hr0.0 mm/hr 0.08 in2.0 mm
06:45 PM 44.2°F6.8°C 41.0°F5.0°C 89% 2.0 mph NW3.2 kmh NW 2.5 mph4.0 kmh 30.24 in1024.0 mb 0.00 in0.0 mm 0.00 in/hr0.0 mm/hr 0.08 in2.0 mm
06:40 PM 44.2°F6.8°C 41.0°F5.0°C 89% 2.5 mph WSW4.0 kmh WSW 2.5 mph4.0 kmh 30.24 in1024.0 mb 0.00 in0.0 mm 0.00 in/hr0.0 mm/hr 0.08 in2.0 mm
06:35 PM 44.4°F6.9°C 42.8°F6.0°C 90% 2.5 mph WSW4.0 kmh WSW 2.5 mph4.0 kmh 30.21 in1023.0 mb 0.00 in0.0 mm 0.00 in/hr0.0 mm/hr 0.08 in2.0 mm
06:30 PM 44.6°F7.0°C 42.8°F6.0°C 90% 2.5 mph WSW4.0 kmh WSW 2.5 mph4.0 kmh 30.21 in1023.0 mb 0.00 in0.0 mm 0.00 in/hr0.0 mm/hr 0.08 in2.0 mm
06:25 PM 44.6°F7.0°C 42.8°F6.0°C 90% 2.5 mph WSW4.0 kmh WSW 2.5 mph4.0 kmh 30.21 in1023.0 mb 0.00 in0.0 mm 0.00 in/hr0.0 mm/hr 0.08 in2.0 mm
06:20 PM 44.8°F7.1°C 42.8°F6.0°C 90% 2.5 mph WSW4.0 kmh WSW 2.5 mph4.0 kmh 30.21 in1023.0 mb 0.00 in0.0 mm 0.00 in/hr0.0 mm/hr 0.08 in2.0 mm
06:15 PM 44.8°F7.1°C 42.8°F6.0°C 90% 1.6 mph W2.6 kmh W 2.7 mph4.3 kmh 30.21 in1023.0 mb 0.00 in0.0 mm 0.00 in/hr0.0 mm/hr 0.08 in2.0 mm
06:10 PM 44.6°F7.0°C 42.8°F6.0°C 89% 1.6 mph W2.6 kmh W 2.7 mph4.3 kmh 30.21 in1023.0 mb 0.00 in0.0 mm 0.00 in/hr0.0 mm/hr 0.08 in2.0 mm
06:05 PM 44.8°F7.1°C 42.8°F6.0°C 89% 1.6 mph W2.6 kmh W 2.7 mph4.3 kmh 30.24 in1024.0 mb 0.00 in0.0 mm 0.00 in/hr0.0 mm/hr 0.08 in2.0 mm
06:00 PM 44.8°F7.1°C 42.8°F6.0°C 90% 1.6 mph W2.6 kmh W 2.7 mph4.3 kmh 30.24 in1024.0 mb 0.00 in0.0 mm 0.00 in/hr0.0 mm/hr 0.08 in2.0 mm
05:55 PM 45.0°F7.2°C 42.8°F6.0°C 90% 1.6 mph W2.6 kmh W 2.7 mph4.3 kmh 30.24 in1024.0 mb 0.00 in0.0 mm 0.00 in/hr0.0 mm/hr 0.08 in2.0 mm
05:50 PM 45.0°F7.2°C 42.8°F6.0°C 90% 1.6 mph W2.6 kmh W 2.7 mph4.3 kmh 30.24 in1024.0 mb 0.00 in0.0 mm 0.00 in/hr0.0 mm/hr 0.08 in2.0 mm
05:45 PM 45.0°F7.2°C 42.8°F6.0°C 89% 1.6 mph W2.6 kmh W 2.7 mph4.3 kmh 30.24 in1024.0 mb 0.00 in0.0 mm 0.00 in/hr0.0 mm/hr 0.08 in2.0 mm
05:40 PM 45.0°F7.2°C 42.8°F6.0°C 89% 1.6 mph W2.6 kmh W 2.7 mph4.3 kmh 30.24 in1024.0 mb 0.00 in0.0 mm 0.00 in/hr0.0 mm/hr 0.08 in2.0 mm
05:35 PM 45.1°F7.3°C 42.8°F6.0°C 88% 1.6 mph W2.6 kmh W 2.7 mph4.3 kmh 30.24 in1024.0 mb 0.00 in0.0 mm 0.00 in/hr0.0 mm/hr 0.08 in2.0 mm
05:30 PM 45.0°F7.2°C 42.8°F6.0°C 88% 1.6 mph W2.6 kmh W 2.7 mph4.3 kmh 30.24 in1024.0 mb 0.00 in0.0 mm 0.00 in/hr0.0 mm/hr 0.08 in2.0 mm
05:25 PM 45.0°F7.2°C 42.8°F6.0°C 88% 1.6 mph W2.6 kmh W 2.7 mph4.3 kmh 30.24 in1024.0 mb 0.00 in0.0 mm 0.00 in/hr0.0 mm/hr 0.08 in2.0 mm
05:20 PM 45.0°F7.2°C 42.8°F6.0°C 88% 1.6 mph W2.6 kmh W 2.7 mph4.3 kmh 30.21 in1023.0 mb 0.00 in0.0 mm 0.00 in/hr0.0 mm/hr 0.08 in2.0 mm
05:15 PM 45.1°F7.3°C 42.8°F6.0°C 89% 1.6 mph W2.6 kmh W 2.7 mph4.3 kmh 30.21 in1023.0 mb 0.00 in0.0 mm 0.00 in/hr0.0 mm/hr 0.08 in2.0 mm
05:10 PM 45.3°F7.4°C 42.8°F6.0°C 89% 1.6 mph W2.6 kmh W 2.7 mph4.3 kmh 30.21 in1023.0 mb 0.00 in0.0 mm 0.00 in/hr0.0 mm/hr 0.08 in2.0 mm
05:05 PM 45.3°F7.4°C 42.8°F6.0°C 89% 1.6 mph W2.6 kmh W 2.7 mph4.3 kmh 30.24 in1024.0 mb 0.00 in0.0 mm 0.00 in/hr0.0 mm/hr 0.08 in2.0 mm
05:00 PM 45.1°F7.3°C 42.8°F6.0°C 88% 1.6 mph W2.6 kmh W 2.7 mph4.3 kmh 30.24 in1024.0 mb 0.00 in0.0 mm 0.00 in/hr0.0 mm/hr 0.08 in2.0 mm
04:55 PM 45.1°F7.3°C 42.8°F6.0°C 88% 1.6 mph W2.6 kmh W 2.7 mph4.3 kmh 30.24 in1024.0 mb 0.00 in0.0 mm 0.00 in/hr0.0 mm/hr 0.08 in2.0 mm
04:50 PM 45.0°F7.2°C 42.8°F6.0°C 87% 1.6 mph W2.6 kmh W 2.7 mph4.3 kmh 30.24 in1024.0 mb 0.00 in0.0 mm 0.00 in/hr0.0 mm/hr 0.08 in2.0 mm
04:45 PM 45.0°F7.2°C 42.8°F6.0°C 87% 1.6 mph W2.6 kmh W 2.7 mph4.3 kmh 30.24 in1024.0 mb 0.00 in0.0 mm 0.00 in/hr0.0 mm/hr 0.08 in2.0 mm
04:40 PM 45.0°F7.2°C 42.8°F6.0°C 87% 1.6 mph WSW2.6 kmh WSW 2.7 mph4.3 kmh 30.24 in1024.0 mb 0.00 in0.0 mm 0.00 in/hr0.0 mm/hr 0.08 in2.0 mm
04:35 PM 45.0°F7.2°C 42.8°F6.0°C 87% 1.6 mph WSW2.6 kmh WSW 2.7 mph4.3 kmh 30.21 in1023.0 mb 0.00 in0.0 mm 0.00 in/hr0.0 mm/hr 0.08 in2.0 mm
04:30 PM 45.0°F7.2°C 42.8°F6.0°C 88% 2.0 mph WSW3.2 kmh WSW 1.3 mph2.1 kmh 30.21 in1023.0 mb 0.00 in0.0 mm 0.00 in/hr0.0 mm/hr 0.08 in2.0 mm
04:25 PM 45.0°F7.2°C 42.8°F6.0°C 88% 2.0 mph WSW3.2 kmh WSW 1.3 mph2.1 kmh 30.21 in1023.0 mb 0.00 in0.0 mm 0.00 in/hr0.0 mm/hr 0.08 in2.0 mm
04:20 PM 44.8°F7.1°C 41.0°F5.0°C 88% 1.1 mph 1.8 kmh -- 30.24 in1024.0 mb 0.00 in0.0 mm 0.00 in/hr0.0 mm/hr 0.08 in2.0 mm
04:15 PM 44.8°F7.1°C 41.0°F5.0°C 88% 1.1 mph 1.8 kmh -- 30.24 in1024.0 mb 0.00 in0.0 mm 0.00 in/hr0.0 mm/hr 0.08 in2.0 mm
04:10 PM 44.6°F7.0°C 41.0°F5.0°C 87% 1.1 mph 1.8 kmh -- 30.24 in1024.0 mb 0.00 in0.0 mm 0.00 in/hr0.0 mm/hr 0.08 in2.0 mm
04:05 PM 44.6°F7.0°C 41.0°F5.0°C 87% 1.1 mph 1.8 kmh -- 30.24 in1024.0 mb 0.00 in0.0 mm 0.00 in/hr0.0 mm/hr 0.08 in2.0 mm
04:00 PM 44.6°F7.0°C 41.0°F5.0°C 86% 1.1 mph 1.8 kmh -- 30.24 in1024.0 mb 0.00 in0.0 mm 0.00 in/hr0.0 mm/hr 0.08 in2.0 mm
03:55 PM 44.6°F7.0°C 41.0°F5.0°C 86% 1.1 mph 1.8 kmh -- 30.24 in1024.0 mb 0.00 in0.0 mm 0.00 in/hr0.0 mm/hr 0.08 in2.0 mm
03:50 PM 44.4°F6.9°C 41.0°F5.0°C 85% 1.1 mph WSW1.8 kmh WSW 2.7 mph4.3 kmh 30.27 in1025.1 mb 0.00 in0.0 mm 0.00 in/hr0.0 mm/hr 0.08 in2.0 mm
03:45 PM 44.4°F6.9°C 41.0°F5.0°C 84% 1.1 mph WSW1.8 kmh WSW 2.7 mph4.3 kmh 30.27 in1025.1 mb 0.00 in0.0 mm 0.00 in/hr0.0 mm/hr 0.08 in2.0 mm
03:40 PM 44.6°F7.0°C 41.0°F5.0°C 84% Calm Calm 2.7 mph4.3 kmh 30.27 in1025.1 mb 0.00 in0.0 mm 0.00 in/hr0.0 mm/hr 0.08 in2.0 mm
03:35 PM 44.4°F6.9°C 39.2°F4.0°C 83% Calm Calm 2.7 mph4.3 kmh 30.27 in1025.1 mb 0.00 in0.0 mm 0.00 in/hr0.0 mm/hr 0.08 in2.0 mm
03:30 PM 44.4°F6.9°C 39.2°F4.0°C 82% Calm Calm -- 30.27 in1025.1 mb 0.00 in0.0 mm 0.00 in/hr0.0 mm/hr 0.08 in2.0 mm
03:25 PM 44.6°F7.0°C 39.2°F4.0°C 82% Calm Calm -- 30.27 in1025.1 mb 0.00 in0.0 mm 0.00 in/hr0.0 mm/hr 0.08 in2.0 mm
03:20 PM 44.4°F6.9°C 39.2°F4.0°C 82% Calm Calm -- 30.27 in1025.1 mb 0.00 in0.0 mm 0.00 in/hr0.0 mm/hr 0.08 in2.0 mm
03:15 PM 44.2°F6.8°C 39.2°F4.0°C 82% Calm Calm -- 30.27 in1025.1 mb 0.00 in0.0 mm 0.00 in/hr0.0 mm/hr 0.08 in2.0 mm
03:10 PM 44.2°F6.8°C 39.2°F4.0°C 81% 1.3 mph 2.1 kmh -- 30.27 in1025.1 mb 0.00 in0.0 mm 0.00 in/hr0.0 mm/hr 0.08 in2.0 mm
03:05 PM 44.1°F6.7°C 39.2°F4.0°C 81% 1.3 mph 2.1 kmh -- 30.27 in1025.1 mb 0.00 in0.0 mm 0.00 in/hr0.0 mm/hr 0.08 in2.0 mm
03:00 PM 44.2°F6.8°C 39.2°F4.0°C 82% 1.3 mph 2.1 kmh -- 30.27 in1025.1 mb 0.04 in1.0 mm 0.00 in/hr0.0 mm/hr 0.08 in2.0 mm
02:55 PM 44.4°F6.9°C 39.2°F4.0°C 81% 1.3 mph W2.1 kmh W 1.1 mph1.8 kmh 30.27 in1025.1 mb 0.04 in1.0 mm 0.00 in/hr0.0 mm/hr 0.08 in2.0 mm
02:50 PM 44.8°F7.1°C 39.2°F4.0°C 79% 1.3 mph WNW2.1 kmh WNW 3.1 mph5.0 kmh 30.27 in1025.1 mb 0.04 in1.0 mm 0.00 in/hr0.0 mm/hr 0.08 in2.0 mm
02:45 PM 45.1°F7.3°C 39.2°F4.0°C 79% Calm Calm 3.1 mph5.0 kmh 30.27 in1025.1 mb 0.04 in1.0 mm 0.00 in/hr0.0 mm/hr 0.08 in2.0 mm
02:40 PM 45.3°F7.4°C 39.2°F4.0°C 79% 1.1 mph W1.8 kmh W 3.1 mph5.0 kmh 30.27 in1025.1 mb 0.04 in1.0 mm 0.00 in/hr0.0 mm/hr 0.08 in2.0 mm
02:35 PM 45.0°F7.2°C 39.2°F4.0°C 79% Calm Calm 3.1 mph5.0 kmh 30.27 in1025.1 mb 0.04 in1.0 mm 0.00 in/hr0.0 mm/hr 0.08 in2.0 mm
02:30 PM 45.1°F7.3°C 39.2°F4.0°C 79% 1.6 mph WSW2.6 kmh WSW 3.6 mph5.8 kmh 30.27 in1025.1 mb 0.04 in1.0 mm 0.00 in/hr0.0 mm/hr 0.08 in2.0 mm
02:25 PM 45.1°F7.3°C 39.2°F4.0°C 79% 1.6 mph WSW2.6 kmh WSW 3.6 mph5.8 kmh 30.27 in1025.1 mb 0.04 in1.0 mm 0.00 in/hr0.0 mm/hr 0.08 in2.0 mm
02:20 PM 45.1°F7.3°C 39.2°F4.0°C 79% 2.0 mph W3.2 kmh W 3.1 mph5.0 kmh 30.27 in1025.1 mb 0.04 in1.0 mm 0.00 in/hr0.0 mm/hr 0.08 in2.0 mm
02:15 PM 45.5°F7.5°C 39.2°F4.0°C 78% 2.2 mph W3.5 kmh W 3.6 mph5.8 kmh 30.27 in1025.1 mb 0.08 in2.0 mm 0.00 in/hr0.0 mm/hr 0.08 in2.0 mm
02:10 PM 45.5°F7.5°C 39.2°F4.0°C 79% 2.5 mph W4.0 kmh W 3.6 mph5.8 kmh 30.27 in1025.1 mb 0.08 in2.0 mm 0.00 in/hr0.0 mm/hr 0.08 in2.0 mm
02:05 PM 45.0°F7.2°C 39.2°F4.0°C 78% 2.2 mph WSW3.5 kmh WSW 3.1 mph5.0 kmh 30.27 in1025.1 mb 0.08 in2.0 mm 0.48 in/hr12.2 mm/hr 0.08 in2.0 mm
02:00 PM 44.1°F6.7°C 37.4°F3.0°C 77% Calm Calm 2.2 mph3.5 kmh 30.27 in1025.1 mb 0.04 in1.0 mm 0.00 in/hr0.0 mm/hr 0.04 in1.0 mm
01:55 PM 44.1°F6.7°C 37.4°F3.0°C 76% 1.1 mph SW1.8 kmh SW 2.2 mph3.5 kmh 30.27 in1025.1 mb 0.04 in1.0 mm 0.00 in/hr0.0 mm/hr 0.04 in1.0 mm
01:50 PM 43.9°F6.6°C 37.4°F3.0°C 75% 0.9 mph SW1.4 kmh SW 2.2 mph3.5 kmh 30.30 in1026.1 mb 0.04 in1.0 mm 0.00 in/hr0.0 mm/hr 0.04 in1.0 mm
01:45 PM 43.7°F6.5°C 37.4°F3.0°C 75% 1.1 mph WSW1.8 kmh WSW 2.0 mph3.2 kmh 30.30 in1026.1 mb 0.04 in1.0 mm 0.00 in/hr0.0 mm/hr 0.04 in1.0 mm
01:40 PM 43.7°F6.5°C 37.4°F3.0°C 75% 1.3 mph WSW2.1 kmh WSW 2.5 mph4.0 kmh 30.30 in1026.1 mb 0.04 in1.0 mm 0.00 in/hr0.0 mm/hr 0.04 in1.0 mm
01:35 PM 43.7°F6.5°C 37.4°F3.0°C 74% 1.1 mph WSW1.8 kmh WSW 2.7 mph4.3 kmh 30.30 in1026.1 mb 0.04 in1.0 mm 0.00 in/hr0.0 mm/hr 0.04 in1.0 mm
01:30 PM 43.7°F6.5°C 35.6°F2.0°C 73% Calm Calm 2.7 mph4.3 kmh 30.30 in1026.1 mb 0.04 in1.0 mm 0.00 in/hr0.0 mm/hr 0.04 in1.0 mm
01:25 PM 43.7°F6.5°C 35.6°F2.0°C 72% Calm Calm 2.0 mph3.2 kmh 30.30 in1026.1 mb 0.04 in1.0 mm 0.00 in/hr0.0 mm/hr 0.04 in1.0 mm
01:20 PM 43.9°F6.6°C 35.6°F2.0°C 72% 1.1 mph SW1.8 kmh SW 1.3 mph2.1 kmh 30.30 in1026.1 mb 0.04 in1.0 mm 0.48 in/hr12.2 mm/hr 0.04 in1.0 mm
01:15 PM 44.1°F6.7°C 35.6°F2.0°C 70% Calm Calm 2.0 mph3.2 kmh 30.30 in1026.1 mb 0.00 in0.0 mm 0.00 in/hr0.0 mm/hr 0.00 in0.0 mm
01:10 PM 44.1°F6.7°C 33.8°F1.0°C 69% Calm Calm 2.0 mph3.2 kmh 30.30 in1026.1 mb 0.00 in0.0 mm 0.00 in/hr0.0 mm/hr 0.00 in0.0 mm
01:05 PM 44.1°F6.7°C 33.8°F1.0°C 68% Calm Calm 1.3 mph2.1 kmh 30.30 in1026.1 mb 0.00 in0.0 mm 0.00 in/hr0.0 mm/hr 0.00 in0.0 mm
01:00 PM 44.2°F6.8°C 33.8°F1.0°C 68% 0.9 mph SW1.4 kmh SW 1.3 mph2.1 kmh 30.30 in1026.1 mb 0.00 in0.0 mm 0.00 in/hr0.0 mm/hr 0.00 in0.0 mm
12:55 PM 44.2°F6.8°C 33.8°F1.0°C 67% 1.1 mph SW1.8 kmh SW 1.3 mph2.1 kmh 30.30 in1026.1 mb 0.00 in0.0 mm 0.00 in/hr0.0 mm/hr 0.00 in0.0 mm
12:50 PM 44.4°F6.9°C 33.8°F1.0°C 67% 0.9 mph SW1.4 kmh SW 1.6 mph2.6 kmh 30.30 in1026.1 mb 0.00 in0.0 mm 0.00 in/hr0.0 mm/hr 0.00 in0.0 mm
12:45 PM 44.6°F7.0°C 33.8°F1.0°C 67% Calm Calm 1.6 mph2.6 kmh 30.30 in1026.1 mb 0.00 in0.0 mm 0.00 in/hr0.0 mm/hr 0.00 in0.0 mm
12:40 PM 44.6°F7.0°C 33.8°F1.0°C 67% Calm Calm 0.9 mph1.4 kmh 30.30 in1026.1 mb 0.00 in0.0 mm 0.00 in/hr0.0 mm/hr 0.00 in0.0 mm
12:35 PM 44.6°F7.0°C 33.8°F1.0°C 66% Calm Calm 2.0 mph3.2 kmh 30.33 in1027.1 mb 0.00 in0.0 mm 0.00 in/hr0.0 mm/hr 0.00 in0.0 mm
12:30 PM 44.2°F6.8°C 33.8°F1.0°C 65% Calm Calm 2.0 mph3.2 kmh 30.33 in1027.1 mb 0.00 in0.0 mm 0.00 in/hr0.0 mm/hr 0.00 in0.0 mm
12:25 PM 44.1°F6.7°C 33.8°F1.0°C 65% 1.3 mph WSW2.1 kmh WSW 1.6 mph2.6 kmh 30.33 in1027.1 mb 0.00 in0.0 mm 0.00 in/hr0.0 mm/hr 0.00 in0.0 mm
12:20 PM 44.2°F6.8°C 33.8°F1.0°C 64% Calm Calm -- 30.33 in1027.1 mb 0.00 in0.0 mm 0.00 in/hr0.0 mm/hr 0.00 in0.0 mm
12:15 PM 44.1°F6.7°C 33.8°F1.0°C 64% Calm Calm -- 30.33 in1027.1 mb 0.00 in0.0 mm 0.00 in/hr0.0 mm/hr 0.00 in0.0 mm
12:10 PM 43.9°F6.6°C 32.0°F0.0°C 63% Calm Calm -- 30.33 in1027.1 mb 0.00 in0.0 mm 0.00 in/hr0.0 mm/hr 0.00 in0.0 mm
12:05 PM 43.9°F6.6°C 33.8°F1.0°C 64% Calm Calm -- 30.36 in1028.1 mb 0.00 in0.0 mm 0.00 in/hr0.0 mm/hr 0.00 in0.0 mm
12:00 PM 44.4°F6.9°C 33.8°F1.0°C 63% Calm Calm -- 30.36 in1028.1 mb 0.00 in0.0 mm 0.00 in/hr0.0 mm/hr 0.00 in0.0 mm
11:55 AM 44.2°F6.8°C 32.0°F0.0°C 62% Calm Calm -- 30.36 in1028.1 mb 0.00 in0.0 mm 0.00 in/hr0.0 mm/hr 0.00 in0.0 mm
11:50 AM 44.4°F6.9°C 32.0°F0.0°C 61% Calm Calm -- 30.36 in1028.1 mb 0.00 in0.0 mm 0.00 in/hr0.0 mm/hr 0.00 in0.0 mm
11:45 AM 44.2°F6.8°C 32.0°F0.0°C 61% Calm Calm -- 30.36 in1028.1 mb 0.00 in0.0 mm 0.00 in/hr0.0 mm/hr 0.00 in0.0 mm
11:40 AM 44.1°F6.7°C 32.0°F0.0°C 61% Calm Calm -- 30.36 in1028.1 mb 0.00 in0.0 mm 0.00 in/hr0.0 mm/hr 0.00 in0.0 mm
11:35 AM 44.1°F6.7°C 32.0°F0.0°C 61% Calm Calm -- 30.36 in1028.1 mb 0.00 in0.0 mm 0.00 in/hr0.0 mm/hr 0.00 in0.0 mm
11:30 AM 44.1°F6.7°C 32.0°F0.0°C 60% Calm Calm -- 30.36 in1028.1 mb 0.00 in0.0 mm 0.00 in/hr0.0 mm/hr 0.00 in0.0 mm
11:25 AM 43.7°F6.5°C 32.0°F0.0°C 60% Calm Calm -- 30.36 in1028.1 mb 0.00 in0.0 mm 0.00 in/hr0.0 mm/hr 0.00 in0.0 mm
11:20 AM 43.2°F6.2°C 30.2°F-1.0°C 60% Calm Calm -- 30.33 in1027.1 mb 0.00 in0.0 mm 0.00 in/hr0.0 mm/hr 0.00 in0.0 mm
11:15 AM 43.0°F6.1°C 30.2°F-1.0°C 60% Calm Calm 1.6 mph2.6 kmh 30.33 in1027.1 mb 0.00 in0.0 mm 0.00 in/hr0.0 mm/hr 0.00 in0.0 mm
11:10 AM 42.6°F5.9°C 30.2°F-1.0°C 60% Calm Calm 2.2 mph3.5 kmh 30.33 in1027.1 mb 0.00 in0.0 mm 0.00 in/hr0.0 mm/hr 0.00 in0.0 mm
11:05 AM 42.6°F5.9°C 30.2°F-1.0°C 59% 2.2 mph WSW3.5 kmh WSW 2.2 mph3.5 kmh 30.36 in1028.1 mb 0.00 in0.0 mm 0.00 in/hr0.0 mm/hr 0.00 in0.0 mm
11:00 AM 42.8°F6.0°C 30.2°F-1.0°C 59% Calm Calm -- 30.36 in1028.1 mb 0.00 in0.0 mm 0.00 in/hr0.0 mm/hr 0.00 in0.0 mm
10:55 AM 43.0°F6.1°C 30.2°F-1.0°C 59% Calm Calm 1.1 mph1.8 kmh 30.36 in1028.1 mb 0.00 in0.0 mm 0.00 in/hr0.0 mm/hr 0.00 in0.0 mm
10:50 AM 42.8°F6.0°C 30.2°F-1.0°C 59% Calm Calm 1.6 mph2.6 kmh 30.36 in1028.1 mb 0.00 in0.0 mm 0.00 in/hr0.0 mm/hr 0.00 in0.0 mm
10:45 AM 42.4°F5.8°C 30.2°F-1.0°C 59% Calm Calm 1.6 mph2.6 kmh 30.36 in1028.1 mb 0.00 in0.0 mm 0.00 in/hr0.0 mm/hr 0.00 in0.0 mm
10:40 AM 42.3°F5.7°C 30.2°F-1.0°C 59% Calm Calm 1.1 mph1.8 kmh 30.36 in1028.1 mb 0.00 in0.0 mm 0.00 in/hr0.0 mm/hr 0.00 in0.0 mm
10:35 AM 41.9°F5.5°C 30.2°F-1.0°C 59% 1.1 mph SSW1.8 kmh SSW 1.3 mph2.1 kmh 30.36 in1028.1 mb 0.00 in0.0 mm 0.00 in/hr0.0 mm/hr 0.00 in0.0 mm
10:30 AM 41.7°F5.4°C 28.4°F-2.0°C 59% Calm Calm 2.0 mph3.2 kmh 30.36 in1028.1 mb 0.00 in0.0 mm 0.00 in/hr0.0 mm/hr 0.00 in0.0 mm
10:25 AM 41.7°F5.4°C 28.4°F-2.0°C 59% 1.6 mph SSW2.6 kmh SSW 2.0 mph3.2 kmh 30.36 in1028.1 mb 0.00 in0.0 mm 0.00 in/hr0.0 mm/hr 0.00 in0.0 mm
10:20 AM 41.7°F5.4°C 28.4°F-2.0°C 59% Calm Calm 1.6 mph2.6 kmh 30.33 in1027.1 mb 0.00 in0.0 mm 0.00 in/hr0.0 mm/hr 0.00 in0.0 mm
10:15 AM 41.9°F5.5°C 30.2°F-1.0°C 59% 1.1 mph S1.8 kmh S 2.5 mph4.0 kmh 30.33 in1027.1 mb 0.00 in0.0 mm 0.00 in/hr0.0 mm/hr 0.00 in0.0 mm
10:10 AM 42.1°F5.6°C 28.4°F-2.0°C 58% 1.3 mph S2.1 kmh S 2.5 mph4.0 kmh 30.33 in1027.1 mb 0.00 in0.0 mm 0.00 in/hr0.0 mm/hr 0.00 in0.0 mm
10:05 AM 41.9°F5.5°C 28.4°F-2.0°C 58% 2.2 mph S3.5 kmh S 2.5 mph4.0 kmh 30.36 in1028.1 mb 0.00 in0.0 mm 0.00 in/hr0.0 mm/hr 0.00 in0.0 mm
10:00 AM 41.7°F5.4°C 28.4°F-2.0°C 58% 1.6 mph S2.6 kmh S 2.2 mph3.5 kmh 30.36 in1028.1 mb 0.00 in0.0 mm 0.00 in/hr0.0 mm/hr 0.00 in0.0 mm
09:55 AM 41.4°F5.2°C 28.4°F-2.0°C 58% 2.2 mph SSW3.5 kmh SSW 2.2 mph3.5 kmh 30.36 in1028.1 mb 0.00 in0.0 mm 0.00 in/hr0.0 mm/hr 0.00 in0.0 mm
09:50 AM 41.0°F5.0°C 28.4°F-2.0°C 58% Calm Calm 2.0 mph3.2 kmh 30.33 in1027.1 mb 0.00 in0.0 mm 0.00 in/hr0.0 mm/hr 0.00 in0.0 mm
09:45 AM 41.0°F5.0°C 28.4°F-2.0°C 58% Calm Calm 0.9 mph1.4 kmh 30.33 in1027.1 mb 0.00 in0.0 mm 0.00 in/hr0.0 mm/hr 0.00 in0.0 mm
09:40 AM 41.0°F5.0°C 28.4°F-2.0°C 58% Calm Calm 0.9 mph1.4 kmh 30.33 in1027.1 mb 0.00 in0.0 mm 0.00 in/hr0.0 mm/hr 0.00 in0.0 mm
09:35 AM 40.6°F4.8°C 26.6°F-3.0°C 58% Calm Calm -- 30.36 in1028.1 mb 0.00 in0.0 mm 0.00 in/hr0.0 mm/hr 0.00 in0.0 mm
09:30 AM 40.5°F4.7°C 26.6°F-3.0°C 58% Calm Calm -- 30.36 in1028.1 mb 0.00 in0.0 mm 0.00 in/hr0.0 mm/hr 0.00 in0.0 mm
09:25 AM 40.5°F4.7°C 26.6°F-3.0°C 58% Calm Calm 1.6 mph2.6 kmh 30.36 in1028.1 mb 0.00 in0.0 mm 0.00 in/hr0.0 mm/hr 0.00 in0.0 mm
09:20 AM 40.5°F4.7°C 26.6°F-3.0°C 58% 1.1 mph W1.8 kmh W 1.6 mph2.6 kmh 30.36 in1028.1 mb 0.00 in0.0 mm 0.00 in/hr0.0 mm/hr 0.00 in0.0 mm
09:15 AM 40.3°F4.6°C 26.6°F-3.0°C 58% Calm Calm 1.6 mph2.6 kmh 30.36 in1028.1 mb 0.00 in0.0 mm 0.00 in/hr0.0 mm/hr 0.00 in0.0 mm
09:10 AM 40.3°F4.6°C 26.6°F-3.0°C 58% Calm Calm -- 30.36 in1028.1 mb 0.00 in0.0 mm 0.00 in/hr0.0 mm/hr 0.00 in0.0 mm
09:05 AM 40.3°F4.6°C 26.6°F-3.0°C 58% Calm Calm -- 30.36 in1028.1 mb 0.00 in0.0 mm 0.00 in/hr0.0 mm/hr 0.00 in0.0 mm
09:00 AM 40.1°F4.5°C 26.6°F-3.0°C 58% Calm Calm 1.6 mph2.6 kmh 30.36 in1028.1 mb 0.00 in0.0 mm 0.00 in/hr0.0 mm/hr 0.00 in0.0 mm
08:55 AM 40.1°F4.5°C 26.6°F-3.0°C 58% Calm Calm 1.6 mph2.6 kmh 30.36 in1028.1 mb 0.00 in0.0 mm 0.00 in/hr0.0 mm/hr 0.00 in0.0 mm
08:50 AM 40.1°F4.5°C 26.6°F-3.0°C 58% 0.9 mph W1.4 kmh W 1.6 mph2.6 kmh 30.36 in1028.1 mb 0.00 in0.0 mm 0.00 in/hr0.0 mm/hr 0.00 in0.0 mm
08:45 AM 39.9°F4.4°C 26.6°F-3.0°C 57% 1.1 mph W1.8 kmh W 1.3 mph2.1 kmh 30.36 in1028.1 mb 0.00 in0.0 mm 0.00 in/hr0.0 mm/hr 0.00 in0.0 mm
08:40 AM 39.7°F4.3°C 26.6°F-3.0°C 57% Calm Calm -- 30.36 in1028.1 mb 0.00 in0.0 mm 0.00 in/hr0.0 mm/hr 0.00 in0.0 mm
08:35 AM 39.6°F4.2°C 26.6°F-3.0°C 57% Calm Calm -- 30.33 in1027.1 mb 0.00 in0.0 mm 0.00 in/hr0.0 mm/hr 0.00 in0.0 mm
08:30 AM 39.6°F4.2°C 26.6°F-3.0°C 57% Calm Calm -- 30.33 in1027.1 mb 0.00 in0.0 mm 0.00 in/hr0.0 mm/hr 0.00 in0.0 mm
08:25 AM 39.6°F4.2°C 26.6°F-3.0°C 57% Calm Calm -- 30.33 in1027.1 mb 0.00 in0.0 mm 0.00 in/hr0.0 mm/hr 0.00 in0.0 mm
08:20 AM 39.7°F4.3°C 26.6°F-3.0°C 57% Calm Calm 2.7 mph4.3 kmh 30.36 in1028.1 mb 0.00 in0.0 mm 0.00 in/hr0.0 mm/hr 0.00 in0.0 mm
08:15 AM 39.7°F4.3°C 26.6°F-3.0°C 57% Calm Calm 2.7 mph4.3 kmh 30.36 in1028.1 mb 0.00 in0.0 mm 0.00 in/hr0.0 mm/hr 0.00 in0.0 mm
08:10 AM 39.9°F4.4°C 26.6°F-3.0°C 57% Calm Calm 3.1 mph5.0 kmh 30.36 in1028.1 mb 0.00 in0.0 mm 0.00 in/hr0.0 mm/hr 0.00 in0.0 mm
08:05 AM 39.9°F4.4°C 26.6°F-3.0°C 57% 1.1 mph SW1.8 kmh SW 3.1 mph5.0 kmh 30.39 in1029.1 mb 0.00 in0.0 mm 0.00 in/hr0.0 mm/hr 0.00 in0.0 mm
08:00 AM 39.9°F4.4°C 26.6°F-3.0°C 57% 2.5 mph SSW4.0 kmh SSW 3.1 mph5.0 kmh 30.39 in1029.1 mb 0.00 in0.0 mm 0.00 in/hr0.0 mm/hr 0.00 in0.0 mm
07:55 AM 39.9°F4.4°C 26.6°F-3.0°C 57% 2.2 mph SSW3.5 kmh SSW 3.1 mph5.0 kmh 30.39 in1029.1 mb 0.00 in0.0 mm 0.00 in/hr0.0 mm/hr 0.00 in0.0 mm
07:50 AM 39.9°F4.4°C 26.6°F-3.0°C 57% 2.5 mph SSW4.0 kmh SSW 3.6 mph5.8 kmh 30.36 in1028.1 mb 0.00 in0.0 mm 0.00 in/hr0.0 mm/hr 0.00 in0.0 mm
07:45 AM 39.9°F4.4°C 26.6°F-3.0°C 57% 2.9 mph SSW4.7 kmh SSW 3.6 mph5.8 kmh 30.36 in1028.1 mb 0.00 in0.0 mm 0.00 in/hr0.0 mm/hr 0.00 in0.0 mm
07:40 AM 39.9°F4.4°C 24.8°F-4.0°C 56% 1.1 mph SSW1.8 kmh SSW 2.7 mph4.3 kmh 30.36 in1028.1 mb 0.00 in0.0 mm 0.00 in/hr0.0 mm/hr 0.00 in0.0 mm
07:35 AM 39.9°F4.4°C 24.8°F-4.0°C 56% 1.6 mph SW2.6 kmh SW 2.7 mph4.3 kmh 30.36 in1028.1 mb 0.00 in0.0 mm 0.00 in/hr0.0 mm/hr 0.00 in0.0 mm
07:30 AM 39.7°F4.3°C 24.8°F-4.0°C 55% Calm Calm 2.5 mph4.0 kmh 30.36 in1028.1 mb 0.00 in0.0 mm 0.00 in/hr0.0 mm/hr 0.00 in0.0 mm
07:25 AM 39.7°F4.3°C 24.8°F-4.0°C 55% Calm Calm 2.0 mph3.2 kmh 30.36 in1028.1 mb 0.00 in0.0 mm 0.00 in/hr0.0 mm/hr 0.00 in0.0 mm
07:20 AM 39.7°F4.3°C 24.8°F-4.0°C 54% Calm Calm 2.0 mph3.2 kmh 30.36 in1028.1 mb 0.00 in0.0 mm 0.00 in/hr0.0 mm/hr 0.00 in0.0 mm
07:15 AM 39.6°F4.2°C 24.8°F-4.0°C 54% Calm Calm 2.2 mph3.5 kmh 30.36 in1028.1 mb 0.00 in0.0 mm 0.00 in/hr0.0 mm/hr 0.00 in0.0 mm
07:10 AM 39.7°F4.3°C 24.8°F-4.0°C 54% 1.1 mph W1.8 kmh W 2.2 mph3.5 kmh 30.36 in1028.1 mb 0.00 in0.0 mm 0.00 in/hr0.0 mm/hr 0.00 in0.0 mm
07:05 AM 39.7°F4.3°C 24.8°F-4.0°C 54% Calm Calm 1.3 mph2.1 kmh 30.36 in1028.1 mb 0.00 in0.0 mm 0.00 in/hr0.0 mm/hr 0.00 in0.0 mm
07:00 AM 39.7°F4.3°C 24.8°F-4.0°C 54% 1.1 mph W1.8 kmh W 2.7 mph4.3 kmh 30.36 in1028.1 mb 0.00 in0.0 mm 0.00 in/hr0.0 mm/hr 0.00 in0.0 mm
06:55 AM 39.7°F4.3°C 24.8°F-4.0°C 54% Calm Calm 2.7 mph4.3 kmh 30.36 in1028.1 mb 0.00 in0.0 mm 0.00 in/hr0.0 mm/hr 0.00 in0.0 mm
06:50 AM 39.7°F4.3°C 24.8°F-4.0°C 54% Calm Calm 2.2 mph3.5 kmh 30.36 in1028.1 mb 0.00 in0.0 mm 0.00 in/hr0.0 mm/hr 0.00 in0.0 mm
06:45 AM 39.7°F4.3°C 24.8°F-4.0°C 54% 1.3 mph SW2.1 kmh SW 2.5 mph4.0 kmh 30.36 in1028.1 mb 0.00 in0.0 mm 0.00 in/hr0.0 mm/hr 0.00 in0.0 mm
06:40 AM 39.6°F4.2°C 24.8°F-4.0°C 54% 1.3 mph SW2.1 kmh SW 2.7 mph4.3 kmh 30.36 in1028.1 mb 0.00 in0.0 mm 0.00 in/hr0.0 mm/hr 0.00 in0.0 mm
06:35 AM 39.4°F4.1°C 24.8°F-4.0°C 54% Calm Calm 2.7 mph4.3 kmh 30.36 in1028.1 mb 0.00 in0.0 mm 0.00 in/hr0.0 mm/hr 0.00 in0.0 mm
06:30 AM 39.4°F4.1°C 24.8°F-4.0°C 54% 2.0 mph S3.2 kmh S 3.4 mph5.5 kmh 30.36 in1028.1 mb 0.00 in0.0 mm 0.00 in/hr0.0 mm/hr 0.00 in0.0 mm
06:25 AM 39.4°F4.1°C 24.8°F-4.0°C 54% 2.0 mph S3.2 kmh S 3.4 mph5.5 kmh 30.36 in1028.1 mb 0.00 in0.0 mm 0.00 in/hr0.0 mm/hr 0.00 in0.0 mm
06:20 AM 39.4°F4.1°C 24.8°F-4.0°C 54% 3.4 mph S5.5 kmh S 3.4 mph5.5 kmh 30.36 in1028.1 mb 0.00 in0.0 mm 0.00 in/hr0.0 mm/hr 0.00 in0.0 mm
06:15 AM 39.0°F3.9°C 24.8°F-4.0°C 54% 1.6 mph S2.6 kmh S 2.9 mph4.7 kmh 30.36 in1028.1 mb 0.00 in0.0 mm 0.00 in/hr0.0 mm/hr 0.00 in0.0 mm
06:10 AM 38.8°F3.8°C 23.0°F-5.0°C 54% 1.1 mph S1.8 kmh S 2.9 mph4.7 kmh 30.36 in1028.1 mb 0.00 in0.0 mm 0.00 in/hr0.0 mm/hr 0.00 in0.0 mm
06:05 AM 38.8°F3.8°C 23.0°F-5.0°C 54% 1.1 mph S1.8 kmh S 3.4 mph5.5 kmh 30.39 in1029.1 mb 0.00 in0.0 mm 0.00 in/hr0.0 mm/hr 0.00 in0.0 mm
06:00 AM 38.7°F3.7°C 23.0°F-5.0°C 54% 2.0 mph S3.2 kmh S 3.4 mph5.5 kmh 30.39 in1029.1 mb 0.00 in0.0 mm 0.00 in/hr0.0 mm/hr 0.00 in0.0 mm
05:55 AM 38.7°F3.7°C 23.0°F-5.0°C 54% 2.2 mph SSW3.5 kmh SSW 3.4 mph5.5 kmh 30.39 in1029.1 mb 0.00 in0.0 mm 0.00 in/hr0.0 mm/hr 0.00 in0.0 mm
05:50 AM 38.5°F3.6°C 23.0°F-5.0°C 54% 3.1 mph SSW5.0 kmh SSW 3.4 mph5.5 kmh 30.36 in1028.1 mb 0.00 in0.0 mm 0.00 in/hr0.0 mm/hr 0.00 in0.0 mm
05:45 AM 38.3°F3.5°C 23.0°F-5.0°C 54% 1.1 mph SW1.8 kmh SW 1.6 mph2.6 kmh 30.36 in1028.1 mb 0.00 in0.0 mm 0.00 in/hr0.0 mm/hr 0.00 in0.0 mm
05:40 AM 37.9°F3.3°C 23.0°F-5.0°C 54% 2.2 mph SSW3.5 kmh SSW 2.7 mph4.3 kmh 30.36 in1028.1 mb 0.00 in0.0 mm 0.00 in/hr0.0 mm/hr 0.00 in0.0 mm
05:35 AM 37.8°F3.2°C 23.0°F-5.0°C 54% 2.5 mph SSW4.0 kmh SSW 2.7 mph4.3 kmh 30.36 in1028.1 mb 0.00 in0.0 mm 0.00 in/hr0.0 mm/hr 0.00 in0.0 mm
05:30 AM 37.4°F3.0°C 23.0°F-5.0°C 55% 2.5 mph SSW4.0 kmh SSW 2.7 mph4.3 kmh 30.36 in1028.1 mb 0.00 in0.0 mm 0.00 in/hr0.0 mm/hr 0.00 in0.0 mm
05:25 AM 36.9°F2.7°C 23.0°F-5.0°C 55% 2.5 mph S4.0 kmh S 2.7 mph4.3 kmh 30.36 in1028.1 mb 0.00 in0.0 mm 0.00 in/hr0.0 mm/hr 0.00 in0.0 mm
05:20 AM 36.5°F2.5°C 23.0°F-5.0°C 55% 2.0 mph S3.2 kmh S 3.4 mph5.5 kmh 30.36 in1028.1 mb 0.00 in0.0 mm 0.00 in/hr0.0 mm/hr 0.00 in0.0 mm
05:15 AM 36.3°F2.4°C 21.2°F-6.0°C 54% 2.5 mph S4.0 kmh S 3.4 mph5.5 kmh 30.36 in1028.1 mb 0.00 in0.0 mm 0.00 in/hr0.0 mm/hr 0.00 in0.0 mm
05:10 AM 36.1°F2.3°C 21.2°F-6.0°C 54% 3.1 mph SSE5.0 kmh SSE 3.1 mph5.0 kmh 30.36 in1028.1 mb 0.00 in0.0 mm 0.00 in/hr0.0 mm/hr 0.00 in0.0 mm
05:05 AM 36.0°F2.2°C 21.2°F-6.0°C 54% 2.2 mph SSE3.5 kmh SSE 3.1 mph5.0 kmh 30.36 in1028.1 mb 0.00 in0.0 mm 0.00 in/hr0.0 mm/hr 0.00 in0.0 mm
05:00 AM 35.6°F2.0°C 21.2°F-6.0°C 55% 2.2 mph SSE3.5 kmh SSE 3.1 mph5.0 kmh 30.36 in1028.1 mb 0.00 in0.0 mm 0.00 in/hr0.0 mm/hr 0.00 in0.0 mm
04:55 AM 35.4°F1.9°C 21.2°F-6.0°C 55% 1.1 mph 1.8 kmh -- 30.36 in1028.1 mb 0.00 in0.0 mm 0.00 in/hr0.0 mm/hr 0.00 in0.0 mm
04:50 AM 35.2°F1.8°C 21.2°F-6.0°C 55% 1.1 mph S1.8 kmh S 1.3 mph2.1 kmh 30.36 in1028.1 mb 0.00 in0.0 mm 0.00 in/hr0.0 mm/hr 0.00 in0.0 mm
04:45 AM 35.1°F1.7°C 21.2°F-6.0°C 55% Calm Calm 1.3 mph2.1 kmh 30.36 in1028.1 mb 0.00 in0.0 mm 0.00 in/hr0.0 mm/hr 0.00 in0.0 mm
04:40 AM 34.9°F1.6°C 21.2°F-6.0°C 55% 0.9 mph S1.4 kmh S 1.3 mph2.1 kmh 30.36 in1028.1 mb 0.00 in0.0 mm 0.00 in/hr0.0 mm/hr 0.00 in0.0 mm
04:35 AM 34.7°F1.5°C 21.2°F-6.0°C 55% 0.9 mph S1.4 kmh S 1.3 mph2.1 kmh 30.36 in1028.1 mb 0.00 in0.0 mm 0.00 in/hr0.0 mm/hr 0.00 in0.0 mm
04:30 AM 34.5°F1.4°C 19.4°F-7.0°C 54% Calm Calm -- 30.36 in1028.1 mb 0.00 in0.0 mm 0.00 in/hr0.0 mm/hr 0.00 in0.0 mm
04:25 AM 34.3°F1.3°C 19.4°F-7.0°C 55% Calm Calm -- 30.36 in1028.1 mb 0.00 in0.0 mm 0.00 in/hr0.0 mm/hr 0.00 in0.0 mm
04:20 AM 34.3°F1.3°C 19.4°F-7.0°C 55% Calm Calm 1.6 mph2.6 kmh 30.36 in1028.1 mb 0.00 in0.0 mm 0.00 in/hr0.0 mm/hr 0.00 in0.0 mm
04:15 AM 34.5°F1.4°C 19.4°F-7.0°C 54% 2.0 mph S3.2 kmh S 1.6 mph2.6 kmh 30.36 in1028.1 mb 0.00 in0.0 mm 0.00 in/hr0.0 mm/hr 0.00 in0.0 mm
04:10 AM 34.5°F1.4°C 19.4°F-7.0°C 54% 2.0 mph S3.2 kmh S 1.6 mph2.6 kmh 30.36 in1028.1 mb 0.00 in0.0 mm 0.00 in/hr0.0 mm/hr 0.00 in0.0 mm
04:05 AM 34.5°F1.4°C 19.4°F-7.0°C 54% 2.0 mph S3.2 kmh S 1.6 mph2.6 kmh 30.36 in1028.1 mb 0.00 in0.0 mm 0.00 in/hr0.0 mm/hr 0.00 in0.0 mm
04:00 AM 34.3°F1.3°C 19.4°F-7.0°C 54% 1.3 mph 2.1 kmh -- 30.36 in1028.1 mb 0.00 in0.0 mm 0.00 in/hr0.0 mm/hr 0.00 in0.0 mm
03:55 AM 34.3°F1.3°C 19.4°F-7.0°C 54% 1.3 mph 2.1 kmh -- 30.36 in1028.1 mb 0.00 in0.0 mm 0.00 in/hr0.0 mm/hr 0.00 in0.0 mm
03:50 AM 34.3°F1.3°C 19.4°F-7.0°C 53% 1.3 mph S2.1 kmh S 1.1 mph1.8 kmh 30.36 in1028.1 mb 0.00 in0.0 mm 0.00 in/hr0.0 mm/hr 0.00 in0.0 mm
03:45 AM 34.5°F1.4°C 19.4°F-7.0°C 53% 1.3 mph S2.1 kmh S 1.6 mph2.6 kmh 30.36 in1028.1 mb 0.00 in0.0 mm 0.00 in/hr0.0 mm/hr 0.00 in0.0 mm
03:40 AM 34.5°F1.4°C 19.4°F-7.0°C 53% 2.2 mph S3.5 kmh S 2.7 mph4.3 kmh 30.36 in1028.1 mb 0.00 in0.0 mm 0.00 in/hr0.0 mm/hr 0.00 in0.0 mm
03:35 AM 34.5°F1.4°C 19.4°F-7.0°C 53% 2.5 mph S4.0 kmh S 2.7 mph4.3 kmh 30.36 in1028.1 mb 0.00 in0.0 mm 0.00 in/hr0.0 mm/hr 0.00 in0.0 mm
03:30 AM 34.5°F1.4°C 19.4°F-7.0°C 53% 2.5 mph SSE4.0 kmh SSE 1.3 mph2.1 kmh 30.36 in1028.1 mb 0.00 in0.0 mm 0.00 in/hr0.0 mm/hr 0.00 in0.0 mm
03:25 AM 34.3°F1.3°C 19.4°F-7.0°C 53% 1.6 mph SSE2.6 kmh SSE 2.9 mph4.7 kmh 30.36 in1028.1 mb 0.00 in0.0 mm 0.00 in/hr0.0 mm/hr 0.00 in0.0 mm
03:20 AM 34.3°F1.3°C 19.4°F-7.0°C 53% Calm Calm 2.9 mph4.7 kmh 30.36 in1028.1 mb 0.00 in0.0 mm 0.00 in/hr0.0 mm/hr 0.00 in0.0 mm
03:15 AM 34.3°F1.3°C 19.4°F-7.0°C 53% 2.2 mph SSE3.5 kmh SSE 2.7 mph4.3 kmh 30.36 in1028.1 mb 0.00 in0.0 mm 0.00 in/hr0.0 mm/hr 0.00 in0.0 mm
03:10 AM 34.2°F1.2°C 19.4°F-7.0°C 53% 2.0 mph SSE3.2 kmh SSE 2.5 mph4.0 kmh 30.36 in1028.1 mb 0.00 in0.0 mm 0.00 in/hr0.0 mm/hr 0.00 in0.0 mm
03:05 AM 34.2°F1.2°C 19.4°F-7.0°C 53% Calm Calm 3.1 mph5.0 kmh 30.36 in1028.1 mb 0.00 in0.0 mm 0.00 in/hr0.0 mm/hr 0.00 in0.0 mm
03:00 AM 34.0°F1.1°C 19.4°F-7.0°C 53% 2.2 mph SSE3.5 kmh SSE 3.1 mph5.0 kmh 30.36 in1028.1 mb 0.00 in0.0 mm 0.00 in/hr0.0 mm/hr 0.00 in0.0 mm
02:55 AM 34.0°F1.1°C 19.4°F-7.0°C 53% Calm Calm 2.0 mph3.2 kmh 30.36 in1028.1 mb 0.00 in0.0 mm 0.00 in/hr0.0 mm/hr 0.00 in0.0 mm
02:50 AM 34.0°F1.1°C 19.4°F-7.0°C 53% Calm Calm -- 30.36 in1028.1 mb 0.00 in0.0 mm 0.00 in/hr0.0 mm/hr 0.00 in0.0 mm
02:45 AM 34.0°F1.1°C 19.4°F-7.0°C 53% Calm Calm -- 30.36 in1028.1 mb 0.00 in0.0 mm 0.00 in/hr0.0 mm/hr 0.00 in0.0 mm
02:40 AM 34.0°F1.1°C 19.4°F-7.0°C 53% Calm Calm -- 30.36 in1028.1 mb 0.00 in0.0 mm 0.00 in/hr0.0 mm/hr 0.00 in0.0 mm
02:35 AM 33.8°F1.0°C 19.4°F-7.0°C 53% Calm Calm 2.9 mph4.7 kmh 30.36 in1028.1 mb 0.00 in0.0 mm 0.00 in/hr0.0 mm/hr 0.00 in0.0 mm
02:30 AM 33.8°F1.0°C 19.4°F-7.0°C 54% 0.9 mph SSE1.4 kmh SSE 3.1 mph5.0 kmh 30.36 in1028.1 mb 0.00 in0.0 mm 0.00 in/hr0.0 mm/hr 0.00 in0.0 mm
02:25 AM 34.0°F1.1°C 19.4°F-7.0°C 53% 2.7 mph S4.3 kmh S 3.1 mph5.0 kmh 30.36 in1028.1 mb 0.00 in0.0 mm 0.00 in/hr0.0 mm/hr 0.00 in0.0 mm
02:20 AM 34.0°F1.1°C 17.6°F-8.0°C 51% Calm Calm -- 30.36 in1028.1 mb 0.00 in0.0 mm 0.00 in/hr0.0 mm/hr 0.00 in0.0 mm
02:15 AM 34.2°F1.2°C 19.4°F-7.0°C 51% Calm Calm -- 30.36 in1028.1 mb 0.00 in0.0 mm 0.00 in/hr0.0 mm/hr 0.00 in0.0 mm
02:10 AM 34.2°F1.2°C 19.4°F-7.0°C 51% Calm Calm -- 30.36 in1028.1 mb 0.00 in0.0 mm 0.00 in/hr0.0 mm/hr 0.00 in0.0 mm
02:05 AM 34.2°F1.2°C 19.4°F-7.0°C 51% Calm Calm -- 30.39 in1029.1 mb 0.00 in0.0 mm 0.00 in/hr0.0 mm/hr 0.00 in0.0 mm
02:00 AM 34.2°F1.2°C 19.4°F-7.0°C 51% Calm Calm -- 30.39 in1029.1 mb 0.00 in0.0 mm 0.00 in/hr0.0 mm/hr 0.00 in0.0 mm
01:55 AM 34.0°F1.1°C 17.6°F-8.0°C 51% Calm Calm -- 30.39 in1029.1 mb 0.00 in0.0 mm 0.00 in/hr0.0 mm/hr 0.00 in0.0 mm
01:50 AM 33.8°F1.0°C 17.6°F-8.0°C 51% Calm Calm -- 30.39 in1029.1 mb 0.00 in0.0 mm 0.00 in/hr0.0 mm/hr 0.00 in0.0 mm
01:45 AM 33.8°F1.0°C 17.6°F-8.0°C 51% Calm Calm -- 30.39 in1029.1 mb 0.00 in0.0 mm 0.00 in/hr0.0 mm/hr 0.00 in0.0 mm
01:40 AM 33.6°F0.9°C 17.6°F-8.0°C 51% Calm Calm -- 30.39 in1029.1 mb 0.00 in0.0 mm 0.00 in/hr0.0 mm/hr 0.00 in0.0 mm
01:35 AM 33.6°F0.9°C 19.4°F-7.0°C 52% Calm Calm -- 30.39 in1029.1 mb 0.00 in0.0 mm 0.00 in/hr0.0 mm/hr 0.00 in0.0 mm
01:30 AM 33.4°F0.8°C 19.4°F-7.0°C 52% Calm Calm -- 30.39 in1029.1 mb 0.00 in0.0 mm 0.00 in/hr0.0 mm/hr 0.00 in0.0 mm
01:25 AM 33.6°F0.9°C 17.6°F-8.0°C 51% Calm Calm -- 30.39 in1029.1 mb 0.00 in0.0 mm 0.00 in/hr0.0 mm/hr 0.00 in0.0 mm
01:20 AM 33.8°F1.0°C 17.6°F-8.0°C 50% Calm Calm -- 30.39 in1029.1 mb 0.00 in0.0 mm 0.00 in/hr0.0 mm/hr 0.00 in0.0 mm
01:15 AM 34.3°F1.3°C 17.6°F-8.0°C 49% Calm Calm -- 30.39 in1029.1 mb 0.00 in0.0 mm 0.00 in/hr0.0 mm/hr 0.00 in0.0 mm
01:10 AM 34.3°F1.3°C 17.6°F-8.0°C 48% Calm Calm -- 30.39 in1029.1 mb 0.00 in0.0 mm 0.00 in/hr0.0 mm/hr 0.00 in0.0 mm
01:05 AM 34.5°F1.4°C 17.6°F-8.0°C 48% Calm Calm -- 30.39 in1029.1 mb 0.00 in0.0 mm 0.00 in/hr0.0 mm/hr 0.00 in0.0 mm
01:00 AM 34.5°F1.4°C 17.6°F-8.0°C 48% Calm Calm -- 30.39 in1029.1 mb 0.00 in0.0 mm 0.00 in/hr0.0 mm/hr 0.00 in0.0 mm
12:55 AM 34.5°F1.4°C 17.6°F-8.0°C 48% Calm Calm -- 30.39 in1029.1 mb 0.00 in0.0 mm 0.00 in/hr0.0 mm/hr 0.00 in0.0 mm
12:50 AM 34.5°F1.4°C 17.6°F-8.0°C 48% Calm Calm -- 30.41 in1029.8 mb 0.00 in0.0 mm 0.00 in/hr0.0 mm/hr 0.00 in0.0 mm
12:45 AM 34.5°F1.4°C 15.8°F-9.0°C 47% Calm Calm -- 30.41 in1029.8 mb 0.00 in0.0 mm 0.00 in/hr0.0 mm/hr 0.00 in0.0 mm
12:40 AM 34.5°F1.4°C 15.8°F-9.0°C 47% Calm Calm -- 30.41 in1029.8 mb 0.00 in0.0 mm 0.00 in/hr0.0 mm/hr 0.00 in0.0 mm
12:35 AM 34.5°F1.4°C 17.6°F-8.0°C 48% Calm Calm -- 30.39 in1029.1 mb 0.00 in0.0 mm 0.00 in/hr0.0 mm/hr 0.00 in0.0 mm
12:30 AM 34.9°F1.6°C 17.6°F-8.0°C 47% Calm Calm -- 30.39 in1029.1 mb 0.00 in0.0 mm 0.00 in/hr0.0 mm/hr 0.00 in0.0 mm
12:25 AM 35.1°F1.7°C 17.6°F-8.0°C 47% Calm Calm -- 30.39 in1029.1 mb 0.00 in0.0 mm 0.00 in/hr0.0 mm/hr 0.00 in0.0 mm
12:20 AM 35.2°F1.8°C 17.6°F-8.0°C 47% Calm Calm -- 30.39 in1029.1 mb 0.00 in0.0 mm 0.00 in/hr0.0 mm/hr 0.00 in0.0 mm
12:15 AM 35.4°F1.9°C 17.6°F-8.0°C 47% Calm Calm -- 30.39 in1029.1 mb 0.00 in0.0 mm 0.00 in/hr0.0 mm/hr 0.00 in0.0 mm
12:10 AM 35.4°F1.9°C 17.6°F-8.0°C 47% Calm Calm -- 30.39 in1029.1 mb 0.00 in0.0 mm 0.00 in/hr0.0 mm/hr 0.00 in0.0 mm
12:05 AM 35.4°F1.9°C 17.6°F-8.0°C 47% Calm Calm 2.0 mph3.2 kmh 30.39 in1029.1 mb 0.00 in0.0 mm 0.00 in/hr0.0 mm/hr 0.00 in0.0 mm
12:00 AM 35.6°F2.0°C 17.6°F-8.0°C 47% 0.9 mph S1.4 kmh S 2.5 mph4.0 kmh 30.39 in1029.1 mb 0.00 in0.0 mm 0.00 in/hr0.0 mm/hr 0.00 in0.0 mm